Data for 11/08/2018

Time Sea-Level Adjusted Pressure Absolute Pressure Temperature Relative Humidity Dew Point   
(mb) (inHg) (mb) (inHg) (C) (F) (%) (C) (F)
00:05 1025 30.27 854 25.22 -7.1 19.2 88 -8.8 16.1
00:10 1025 30.27 855 25.25 -7.1 19.2 87 -8.9 16
00:15 1025 30.27 855 25.25 -7.1 19.2 88 -8.8 16.1
00:20 1025 30.27 855 25.25 -7.1 19.2 87 -8.9 16
00:25 1026 30.3 855 25.25 -7.1 19.3 87 -8.9 16.1
00:30 1026 30.3 855 25.25 -7.1 19.3 86 -9 15.8
00:35 1026 30.3 855 25.25 -7.2 19.1 86 -9.1 15.6
00:40 1026 30.3 855 25.25 -7.2 19.1 87 -9 15.7
00:45 1026 30.3 855 25.25 -7.2 19.1 87 -9 15.7
00:50 1026 30.3 855 25.25 -7.2 19.1 87 -9 15.7
00:55 1026 30.3 855 25.25 -7.2 19.1 86 -9.1 15.6
01:00 1026 30.3 855 25.25 -7.3 18.9 86 -9.2 15.4
01:05 1026 30.3 855 25.25 -7.3 18.8 86 -9.3 15.2
01:10 1026 30.3 855 25.25 -7.4 18.7 86 -9.3 15.3
01:15 1026 30.3 855 25.25 -7.3 18.8 86 -9.3 15.3
01:20 1026 30.3 855 25.25 -7.3 18.8 86 -9.3 15.3
01:25 1026 30.3 855 25.25 -7.3 18.8 86 -9.3 15.2
01:30 1026 30.3 855 25.25 -7.4 18.7 86 -9.4 15.1
01:35 1026 30.3 855 25.25 -7.4 18.6 86 -9.4 15.1
01:40 1026 30.3 855 25.25 -7.4 18.6 86 -9.4 15.1
01:45 1026 30.3 855 25.25 -7.4 18.7 86 -9.4 15.1
01:50 1026 30.3 855 25.25 -7.4 18.8 86 -9.3 15.2
01:55 1026 30.3 855 25.25 -7.4 18.8 85 -9.4 15.1
02:00 1026 30.3 855 25.25 -7.4 18.7 86 -9.4 15
02:05 1026 30.3 855 25.25 -7.4 18.6 85 -9.5 14.9
02:10 1026 30.3 855 25.25 -7.6 18.3 86 -9.6 14.7
02:15 1026 30.3 855 25.25 -7.7 18.2 86 -9.7 14.5
02:20 1026 30.3 855 25.25 -7.8 18 86 -9.7 14.5
02:25 1026 30.3 855 25.25 -7.8 18 87 -9.6 14.6
02:30 1026 30.3 855 25.25 -7.7 18.1 86 -9.7 14.6
02:35 1026 30.3 855 25.25 -7.8 18 85 -9.8 14.3
02:40 1026 30.3 855 25.25 -7.8 17.9 86 -9.8 14.4
02:45 1026 30.3 855 25.25 -7.8 17.9 85 -9.9 14.2
02:50 1026 30.3 855 25.25 -7.9 17.7 85 -10 14.1
02:55 1026 30.3 855 25.25 -8 17.6 85 -10 14
03:00 1026 30.3 855 25.25 -8.1 17.5 85 -10.1 13.8
03:05 1026 30.3 855 25.25 -8.2 17.2 86 -10.1 13.8
03:10 1026 30.3 855 25.25 -8.1 17.3 86 -10.1 13.9
03:15 1026 30.3 855 25.25 -8.2 17.3 86 -10 13.9
03:20 1026 30.3 855 25.25 -8.1 17.4 86 -10 13.9
03:25 1026 30.3 855 25.25 -8.2 17.3 86 -10 13.9
03:30 1026 30.3 855 25.25 -8.1 17.3 86 -10.1 13.9
03:35 1026 30.3 855 25.25 -8.2 17.3 86 -10.1 13.8
03:40 1026 30.3 855 25.25 -8.3 17.1 86 -10.2 13.6
03:45 1026 30.3 855 25.25 -8.3 17 87 -10.2 13.7
03:50 1026 30.3 855 25.25 -8.3 17.1 86 -10.1 13.7
03:55 1026 30.3 855 25.25 -8.3 17.2 87 -10.1 13.8
04:00 1026 30.3 855 25.25 -8.4 16.8 86 -10.3 13.4
04:05 1026 30.3 855 25.25 -8.6 16.5 87 -10.5 13.1
04:10 1026 30.3 856 25.28 -8.9 16 87 -10.7 12.7
04:15 1026 30.3 856 25.28 -8.9 15.9 87 -10.7 12.8
04:20 1026 30.3 856 25.28 -9.1 15.7 86 -11 12.3
04:25 1026 30.3 856 25.28 -9.3 15.2 87 -11.1 12
04:30 1026 30.3 856 25.28 -9.3 15.2 87 -11.1 12.1
04:35 1026 30.3 856 25.28 -9.3 15.2 87 -11.1 11.9
04:40 1026 30.3 856 25.28 -9.4 15.2 87 -11.1 12.1
04:45 1027 30.33 856 25.28 -9.2 15.4 87 -11 12.2
04:50 1026 30.3 856 25.28 -9.2 15.5 87 -11 12.3
04:55 1026 30.3 856 25.28 -9.1 15.7 86 -10.9 12.3
05:00 1026 30.3 856 25.28 -9.1 15.7 86 -11.1 12.1
05:05 1026 30.3 855 25.25 -9.2 15.4 86 -11.2 11.9
05:10 1026 30.3 855 25.25 -9.4 15.1 86 -11.3 11.7
05:15 1026 30.3 855 25.25 -9.5 14.9 86 -11.4 11.5
05:20 1026 30.3 855 25.25 -9.5 15 87 -11.2 11.8
05:25 1026 30.3 855 25.25 -9.3 15.3 87 -11 12.2
05:30 1026 30.3 855 25.25 -9.3 15.3 88 -10.9 12.4
05:35 1026 30.3 856 25.28 -9 15.8 89 -10.6 13
05:40 1026 30.3 855 25.25 -8.8 16.2 87 -10.6 13
05:45 1026 30.3 855 25.25 -8.8 16.1 87 -10.6 13
05:50 1026 30.3 855 25.25 -8.9 16.1 88 -10.5 13
05:55 1026 30.3 855 25.25 -8.9 16.1 88 -10.4 13.2
06:00 1026 30.3 856 25.28 -8.6 16.6 89 -10.1 13.8
06:05 1026 30.3 856 25.28 -8.4 17 88 -10 14
06:10 1026 30.3 856 25.28 -8.8 16.1 87 -10.7 12.8
06:15 1026 30.3 856 25.28 -9 15.8 88 -10.6 12.9
06:20 1026 30.3 856 25.28 -8.7 16.3 88 -10.4 13.3
06:25 1026 30.3 856 25.28 -8.7 16.3 88 -10.4 13.2
06:30 1026 30.3 856 25.28 -8.8 16.1 88 -10.5 13
06:35 1026 30.3 856 25.28 -8.9 16 88 -10.6 13
06:40 1026 30.3 856 25.28 -8.9 15.9 88 -10.6 13
06:45 1026 30.3 855 25.25 -8.9 15.9 88 -10.5 13
06:50 1026 30.3 856 25.28 -8.9 16 88 -10.5 13.1
06:55 1026 30.3 856 25.28 -8.7 16.4 89 -10.2 13.6
07:00 1026 30.3 856 25.28 -8.5 16.8 88 -10.1 13.9
07:05 1026 30.3 856 25.28 -8.2 17.2 87 -10.1 13.8
07:10 1027 30.33 856 25.28 -8.3 17.1 86 -10.2 13.7
07:15 1026 30.3 856 25.28 -8.3 17.1 86 -10.2 13.7
07:20 1026 30.3 856 25.28 -8.2 17.3 86 -10.1 13.8
07:25 1026 30.3 856 25.28 -8.2 17.3 85 -10.2 13.6
07:30 1027 30.33 856 25.28 -8.2 17.2 86 -10.2 13.6
07:35 1027 30.33 856 25.28 -8.1 17.4 86 -10.1 13.9
07:40 1027 30.33 856 25.28 -7.9 17.8 85 -10 14
07:45 1027 30.33 856 25.28 -8 17.5 85 -10.1 13.7
07:50 1027 30.33 856 25.28 -8 17.5 85 -10.1 13.8
07:55 1027 30.33 856 25.28 -7.7 18.1 84 -9.9 14.1
08:00 1027 30.33 856 25.28 -7.6 18.2 83 -10.1 13.9
08:05 1027 30.33 856 25.28 -7.6 18.4 84 -9.9 14.2
08:10 1027 30.33 856 25.28 -7.4 18.7 81 -10.1 13.8
08:15 1027 30.33 856 25.28 -7.3 18.9 82 -9.9 14.2
08:20 1027 30.33 856 25.28 -7 19.4 82 -9.6 14.8
08:25 1027 30.33 856 25.28 -6.8 19.7 81 -9.6 14.8
08:30 1027 30.33 856 25.28 -6.7 20 81 -9.5 15
08:35 1027 30.33 856 25.28 -6.5 20.2 80 -9.4 15
08:40 1027 30.33 856 25.28 -6.6 20 80 -9.5 14.9
08:45 1027 30.33 856 25.28 -6.6 20 80 -9.5 15
08:50 1027 30.33 856 25.28 -6.7 19.9 81 -9.4 15
08:55 1027 30.33 856 25.28 -6.6 20.1 80 -9.5 14.9
09:00 1027 30.33 856 25.28 -6.7 19.9 81 -9.5 14.9
09:05 1027 30.33 856 25.28 -7 19.4 83 -9.4 15.1
09:10 1027 30.33 856 25.28 -6.7 20 82 -9.3 15.3
09:15 1027 30.33 856 25.28 -6.4 20.5 80 -9.2 15.4
09:20 1027 30.33 856 25.28 -6.3 20.7 80 -9.3 15.3
09:25 1027 30.33 856 25.28 -6.1 21 78 -9.3 15.3
09:30 1027 30.33 856 25.28 -6.2 20.9 79 -9.3 15.2
09:35 1027 30.33 856 25.28 -6.2 20.8 78 -9.5 14.9
09:40 1027 30.33 856 25.28 -6.4 20.5 77 -9.8 14.4
09:45 1027 30.33 856 25.28 -6.8 19.8 80 -9.7 14.5
09:50 1027 30.33 856 25.28 -6.7 20 79 -9.8 14.4
09:55 1027 30.33 856 25.28 -6.3 20.6 77 -9.8 14.4
10:00 1027 30.33 856 25.28 -6.2 20.8 77 -9.7 14.5
10:05 1027 30.33 856 25.28 -6 21.1 74 -9.9 14.1
10:10 1027 30.33 856 25.28 -5.7 21.8 73 -9.8 14.4
10:15 1027 30.33 856 25.28 -5.4 22.4 70 -9.9 14.1
10:20 1027 30.33 856 25.28 -5.2 22.6 70 -9.9 14.2
10:25 1027 30.33 856 25.28 -5 22.9 70 -9.7 14.5
10:30 1027 30.33 856 25.28 -5.1 22.8 71 -9.5 14.9
10:35 1027 30.33 856 25.28 -5.4 22.2 72 -9.7 14.5
10:40 1027 30.33 856 25.28 -5.4 22.2 72 -9.8 14.4
10:45 1027 30.33 856 25.28 -4.8 23.4 69 -9.6 14.7
10:50 1027 30.33 856 25.28 -3.8 25.1 65 -9.5 14.8
10:55 1027 30.33 856 25.28 -3.7 25.3 67 -9 15.8
11:00 1027 30.33 856 25.28 -3.2 26.2 65 -8.9 16
11:05 1027 30.33 856 25.28 -2.7 27.1 64 -8.6 16.5
11:10 1027 30.33 856 25.28 -2.7 27.1 66 -8.3 17.1
11:15 1027 30.33 856 25.28 -2.5 27.5 64 -8.5 16.7
11:20 1027 30.33 856 25.28 -1.6 29.1 62 -8 17.6
11:25 1027 30.33 856 25.28 -0.7 30.7 57 -8.2 17.2
11:30 1027 30.33 856 25.28 -0.5 31 56 -8.3 17
11:35 1027 30.33 856 25.28 -1 30.1 59 -8.1 17.4
11:40 1027 30.33 856 25.28 -1.3 29.6 59 -8.4 16.9
11:45 1027 30.33 856 25.28 -1.2 29.8 58 -8.5 16.8
11:50 1027 30.33 856 25.28 -1 30.1 58 -8.3 17.1
11:55 1027 30.33 856 25.28 -0.6 30.9 61 -7.2 19
12:00 1027 30.33 856 25.28 -0.9 30.3 60 -7.7 18.2
12:05 1027 30.33 856 25.28 -1.8 28.7 65 -7.6 18.4
12:10 1027 30.33 856 25.28 -1.1 30 60 -8 17.6
12:15 1027 30.33 856 25.28 -0.7 30.8 59 -7.8 17.9
12:20 1027 30.33 856 25.28 0.7 33.2 53 -7.8 18
12:25 1027 30.33 856 25.28 0.3 32.6 54 -7.9 17.7
12:30 1027 30.33 856 25.28 0 32 54 -8.3 17.1
12:35 1027 30.33 856 25.28 1.1 33.9 52 -7.6 18.3
12:40 1027 30.33 856 25.28 0.9 33.7 52 -7.8 17.9
12:45 1027 30.33 856 25.28 0.7 33.2 53 -8 17.7
12:50 1027 30.33 856 25.28 0.7 33.2 54 -7.7 18.1
12:55 1027 30.33 856 25.28 0.8 33.4 53 -7.8 17.9
13:00 1027 30.33 856 25.28 1.6 34.9 49 -8 17.7
13:05 1027 30.33 856 25.28 1.6 34.9 49 -8.1 17.5
13:10 1027 30.33 856 25.28 1.2 34.1 49 -8.3 17.1
13:15 1027 30.33 856 25.28 0.9 33.6 50 -8.3 17
13:20 1027 30.33 856 25.28 0.7 33.2 53 -7.8 17.9
13:25 1027 30.33 856 25.28 0.8 33.4 54 -7.4 18.6
13:30 1027 30.33 856 25.28 1.1 33.9 50 -8.1 17.3
13:35 1027 30.33 856 25.28 1.1 34 52 -7.8 18
13:40 1027 30.33 856 25.28 1.2 34.1 51 -7.8 17.9
13:45 1027 30.33 856 25.28 1.4 34.4 51 -7.7 18.2
13:50 1027 30.33 856 25.28 1.3 34.4 54 -7.1 19.2
13:55 1027 30.33 856 25.28 1.4 34.5 53 -7.3 18.9
14:00 1027 30.33 856 25.28 1.3 34.3 58 -6.1 21
14:05 1027 30.33 856 25.28 0.5 32.9 56 -7.3 18.9
14:10 1027 30.33 856 25.28 -0 31.9 57 -7.6 18.4
14:15 1027 30.33 856 25.28 0.8 33.5 53 -7.8 18
14:20 1027 30.33 856 25.28 1.4 34.5 53 -7.2 19.1
14:25 1027 30.33 856 25.28 1.5 34.8 52 -7.2 19.1
14:30 1027 30.33 856 25.28 1.3 34.4 51 -7.7 18.2
14:35 1027 30.33 856 25.28 0.7 33.3 54 -7.7 18.2
14:40 1027 30.33 856 25.28 0.5 32.9 53 -8.1 17.4
14:45 1027 30.33 856 25.28 0.7 33.2 53 -7.7 18.1
14:50 1027 30.33 856 25.28 -0.2 31.7 54 -8.5 16.8
14:55 1027 30.33 856 25.28 -0.1 31.8 55 -8.2 17.2
15:00 1027 30.33 856 25.28 0.4 32.6 53 -8.2 17.3
15:05 1027 30.33 856 25.28 0.3 32.5 53 -8.3 17.1
15:10 1027 30.33 856 25.28 -0.7 30.8 56 -8.4 16.9
15:15 1027 30.33 856 25.28 -0.7 30.7 57 -8.2 17.3
15:20 1027 30.33 856 25.28 -0.7 30.7 55 -8.7 16.3
15:25 1027 30.33 856 25.28 -0.8 30.5 55 -8.8 16.2
15:30 1027 30.33 856 25.28 -0.6 30.9 53 -8.9 15.9
15:35 1027 30.33 856 25.28 -0.5 31.1 56 -8.3 17.1
15:40 1027 30.33 856 25.28 -0.6 30.9 54 -8.7 16.3
15:45 1027 30.33 856 25.28 -0.5 31.1 54 -8.6 16.5
15:50 1027 30.33 856 25.28 -0.4 31.2 55 -8.5 16.7
15:55 1027 30.33 856 25.28 -0.6 31 54 -8.9 16.1
16:00 1027 30.33 856 25.28 -0.8 30.6 53 -9.1 15.5
16:05 1027 30.33 856 25.28 -0.8 30.5 55 -8.8 16.1
16:10 1027 30.33 856 25.28 -0.9 30.5 56 -8.6 16.5
16:15 1027 30.33 856 25.28 -0.8 30.5 56 -8.6 16.6
16:20 1027 30.33 856 25.28 -0.8 30.6 54 -8.9 15.9
16:25 1027 30.33 856 25.28 -0.8 30.5 55 -8.7 16.3
16:30 1027 30.33 856 25.28 -0.9 30.3 56 -8.7 16.3
16:35 1027 30.33 856 25.28 -1 30.3 55 -8.9 16
16:40 1027 30.33 856 25.28 -1 30.2 54 -9.2 15.5
16:45 1027 30.33 856 25.28 -1 30.2 54 -9.2 15.4
16:50 1027 30.33 856 25.28 -1.1 30 54 -9.4 15.1
16:55 1027 30.33 856 25.28 -1.3 29.7 54 -9.3 15.2
17:00 1027 30.33 856 25.28 -1.5 29.3 56 -9.2 15.5
17:05 1027 30.33 856 25.28 -1.5 29.3 56 -9.3 15.3
17:10 1027 30.33 856 25.28 -1.6 29.2 57 -9.1 15.7
17:15 1027 30.33 856 25.28 -1.5 29.2 59 -8.5 16.7
17:20 1027 30.33 856 25.28 -1.6 29.1 61 -8.1 17.5
17:25 1027 30.33 856 25.28 -1.8 28.8 64 -7.8 18
17:30 1027 30.33 856 25.28 -1.9 28.7 64 -7.8 17.9
17:35 1027 30.33 856 25.28 -1.9 28.7 66 -7.4 18.6
17:40 1027 30.33 856 25.28 -2 28.4 68 -7.2 19.1
17:45 1027 30.33 856 25.28 -2.6 27.3 72 -7 19.5
17:50 1027 30.33 856 25.28 -3.1 26.5 75 -6.9 19.5
17:55 1027 30.33 856 25.28 -3.4 25.8 77 -6.9 19.5
18:00 1027 30.33 856 25.28 -3.6 25.5 76 -7.2 19.1
18:05 1027 30.33 856 25.28 -3.9 25 77 -7.3 18.8
18:10 1027 30.33 856 25.28 -3.8 25.2 75 -7.5 18.5
18:15 1027 30.33 856 25.28 -3.7 25.4 74 -7.6 18.3
18:20 1027 30.33 856 25.28 -3.3 26 70 -8.1 17.3
18:25 1027 30.33 856 25.28 -3.1 26.5 67 -8.4 16.9
18:30 1027 30.33 856 25.28 -2.8 26.9 69 -7.7 18.1
18:35 1027 30.33 856 25.28 -3 26.5 70 -7.8 17.9
18:40 1027 30.33 856 25.28 -3.4 25.9 69 -8.3 17
18:45 1027 30.33 856 25.28 -3.2 26.2 65 -8.9 16
18:50 1027 30.33 856 25.28 -3 26.6 65 -8.6 16.5
18:55 1027 30.33 856 25.28 -3.1 26.5 66 -8.6 16.5
19:00 1027 30.33 856 25.28 -3.2 26.2 68 -8.4 16.8
19:05 1027 30.33 857 25.31 -3.3 26.1 68 -8.4 16.9
19:10 1027 30.33 857 25.31 -3.4 25.9 67 -8.6 16.6
19:15 1028 30.36 857 25.31 -3.3 26 68 -8.5 16.8
19:20 1028 30.36 857 25.31 -3.5 25.7 69 -8.4 16.9
19:25 1028 30.36 857 25.31 -4.2 24.5 69 -8.9 15.9
19:30 1028 30.36 857 25.31 -4.3 24.3 72 -8.6 16.4
19:35 1028 30.36 857 25.31 -4.4 24.1 72 -8.8 16.2
19:40 1028 30.36 857 25.31 -4.4 24.1 74 -8.4 16.8
19:45 1028 30.36 857 25.31 -4.4 24.1 69 -9.2 15.4
19:50 1028 30.36 857 25.31 -4.4 24 71 -8.9 15.9
19:55 1028 30.36 857 25.31 -4.6 23.7 73 -8.8 16.1
20:00 1028 30.36 857 25.31 -4.8 23.3 73 -8.9 16
20:05 1028 30.36 857 25.31 -5 23 74 -8.9 15.9
20:10 1028 30.36 857 25.31 -5.1 22.8 75 -8.9 15.9
20:15 1028 30.36 857 25.31 -5.2 22.7 74 -9.1 15.7
20:20 1028 30.36 857 25.31 -5.2 22.6 74 -9.2 15.5
20:25 1028 30.36 857 25.31 -5.2 22.7 75 -9 15.9
20:30 1028 30.36 857 25.31 -5.1 22.8 74 -9 15.7
20:35 1028 30.36 857 25.31 -5 23 74 -8.9 15.9
20:40 1028 30.36 857 25.31 -4.9 23.1 73 -9 15.7
20:45 1028 30.36 857 25.31 -5 23 73 -9.1 15.6
20:50 1028 30.36 857 25.31 -5 23 73 -9.2 15.5
20:55 1028 30.36 857 25.31 -5.1 22.8 73 -9.3 15.3
21:00 1028 30.36 857 25.31 -5.4 22.3 73 -9.4 15
21:05 1028 30.36 857 25.31 -5.4 22.2 74 -9.4 15.1
21:10 1028 30.36 857 25.31 -5.4 22.3 70 -10.1 13.9
21:15 1028 30.36 857 25.31 -5.3 22.4 70 -10 13.9
21:20 1028 30.36 857 25.31 -5.4 22.3 69 -10.1 13.8
21:25 1028 30.36 857 25.31 -5.4 22.2 70 -10.1 13.8
21:30 1028 30.36 857 25.31 -5.4 22.2 69 -10.3 13.5
21:35 1028 30.36 857 25.31 -5.4 22.4 69 -10.2 13.7
21:40 1028 30.36 858 25.34 -5.4 22.3 69 -10.2 13.6
21:45 1028 30.36 858 25.34 -5.4 22.3 69 -10.2 13.6
21:50 1028 30.36 858 25.34 -5.4 22.3 69 -10.2 13.7
21:55 1029 30.39 858 25.34 -5.3 22.4 69 -10.2 13.7
22:00 1029 30.39 858 25.34 -5.2 22.7 69 -10 14
22:05 1029 30.39 858 25.34 -5.2 22.7 69 -10 13.9
22:10 1029 30.39 858 25.34 -5.3 22.5 69 -10.1 13.9
22:15 1029 30.39 858 25.34 -5.2 22.7 70 -9.7 14.5
22:20 1029 30.39 858 25.34 -5.2 22.7 70 -9.8 14.4
22:25 1029 30.39 858 25.34 -5.2 22.6 71 -9.7 14.5
22:30 1029 30.39 858 25.34 -5.3 22.4 70 -10 14
22:35 1029 30.39 858 25.34 -5.4 22.4 71 -9.8 14.3
22:40 1029 30.39 858 25.34 -5.4 22.2 71 -9.9 14.2
22:45 1029 30.39 858 25.34 -5.5 22 72 -9.8 14.3
22:50 1029 30.39 858 25.34 -5.5 22 72 -9.9 14.2
22:55 1029 30.39 858 25.34 -5.5 22.2 72 -9.8 14.4
23:00 1029 30.39 858 25.34 -5.5 22 72 -9.8 14.3
23:05 1029 30.39 858 25.34 -5.4 22.2 72 -9.7 14.5
23:10 1029 30.39 858 25.34 -5.3 22.4 71 -9.8 14.4
23:15 1029 30.39 858 25.34 -5.3 22.5 71 -9.8 14.3
23:20 1029 30.39 858 25.34 -5.3 22.4 70 -9.9 14.2
23:25 1029 30.39 858 25.34 -5.6 22 71 -10 14.1
23:30 1029 30.39 858 25.34 -5.8 21.5 72 -10.1 13.8
23:35 1029 30.39 858 25.34 -5.9 21.3 72 -10.1 13.7
23:40 1029 30.39 858 25.34 -6 21.2 73 -10.1 13.8
23:45 1029 30.39 858 25.34 -6 21.2 73 -10.2 13.7
23:50 1029 30.39 858 25.34 -6.1 21 73 -10.1 13.8
23:55 1029 30.39 858 25.34 -6.1 21 73 -10.2 13.6
24:00 1029 30.39 858 25.34 -6.1 21 74 -10.1 13.8